createdAt,value
2022-10-09T00:01:09.454Z,1.33
2022-10-09T00:03:37.553Z,1.00
2022-10-09T00:06:05.585Z,0.93
2022-10-09T00:08:33.645Z,1.63
2022-10-09T00:11:00.459Z,1.10
2022-10-09T00:13:27.222Z,1.67
2022-10-09T00:15:53.992Z,1.27
2022-10-09T00:18:20.741Z,1.15
2022-10-09T00:20:48.094Z,1.48
2022-10-09T00:23:17.334Z,1.08
2022-10-09T00:26:01.491Z,0.90
2022-10-09T00:28:34.257Z,0.55
2022-10-09T00:31:10.448Z,1.45
2022-10-09T00:33:37.569Z,1.05
2022-10-09T00:36:21.712Z,0.93
2022-10-09T00:38:48.656Z,1.20
2022-10-09T00:41:23.212Z,1.10
2022-10-09T00:43:58.632Z,1.73
2022-10-09T00:46:46.740Z,1.95
2022-10-09T00:49:59.263Z,1.40
2022-10-09T00:52:26.419Z,1.30
2022-10-09T00:54:54.319Z,1.20
2022-10-09T00:57:21.150Z,1.40
2022-10-09T00:59:47.899Z,1.00
2022-10-09T01:02:14.719Z,1.45
2022-10-09T01:04:41.482Z,1.80
2022-10-09T01:07:18.730Z,1.25
2022-10-09T01:09:51.359Z,1.92
2022-10-09T01:12:36.225Z,1.30
2022-10-09T01:15:28.740Z,2.47
2022-10-09T01:18:06.058Z,2.20
2022-10-09T01:20:36.066Z,2.28
2022-10-09T01:23:20.933Z,2.67
2022-10-09T01:26:06.370Z,2.10
2022-10-09T01:28:34.137Z,2.15
2022-10-09T01:31:03.762Z,2.20
2022-10-09T01:33:31.652Z,1.92
2022-10-09T01:36:00.096Z,2.25
2022-10-09T01:38:27.628Z,1.58
2022-10-09T01:40:54.745Z,1.75
2022-10-09T01:43:21.542Z,2.28
2022-10-09T01:45:48.900Z,2.13
2022-10-09T01:48:24.249Z,2.20
2022-10-09T01:51:00.574Z,2.80
2022-10-09T01:53:27.671Z,2.03
2022-10-09T01:55:57.423Z,1.80
2022-10-09T01:58:57.259Z,2.05
2022-10-09T02:01:33.247Z,2.00
2022-10-09T02:04:01.719Z,1.77
2022-10-09T02:06:28.953Z,2.13
2022-10-09T02:08:55.741Z,1.80
2022-10-09T02:11:25.950Z,1.70
2022-10-09T02:13:53.284Z,1.88
2022-10-09T02:16:40.730Z,2.03
2022-10-09T02:19:31.496Z,1.52
2022-10-09T02:22:05.823Z,1.80
2022-10-09T02:24:33.163Z,1.80
2022-10-09T02:27:00.897Z,1.50
2022-10-09T02:29:27.682Z,1.70
2022-10-09T02:31:54.429Z,1.63
2022-10-09T02:34:21.265Z,1.67
2022-10-09T02:36:48.330Z,1.50
2022-10-09T02:39:15.120Z,1.50
2022-10-09T02:41:41.881Z,1.88
2022-10-09T02:44:09.040Z,1.98
2022-10-09T02:46:37.942Z,1.50
2022-10-09T02:49:05.794Z,1.95
2022-10-09T02:51:32.560Z,1.52
2022-10-09T02:54:02.109Z,1.92
2022-10-09T02:56:29.163Z,1.58
2022-10-09T02:58:56.036Z,2.13
2022-10-09T03:01:23.275Z,1.88
2022-10-09T03:03:50.065Z,1.55
2022-10-09T03:06:19.911Z,2.08
2022-10-09T03:08:48.559Z,1.88
2022-10-09T03:11:16.966Z,1.30
2022-10-09T03:13:43.910Z,1.42
2022-10-09T03:16:13.823Z,1.90
2022-10-09T03:18:40.888Z,1.13
2022-10-09T03:21:12.269Z,1.48
2022-10-09T03:23:39.073Z,1.58
2022-10-09T03:26:08.389Z,1.70
2022-10-09T03:28:40.441Z,1.25
2022-10-09T03:31:07.954Z,1.30
2022-10-09T03:33:36.049Z,1.52
2022-10-09T03:36:03.692Z,2.17
2022-10-09T03:38:30.497Z,1.45
2022-10-09T03:41:03.472Z,1.63
2022-10-09T03:43:30.470Z,1.90
2022-10-09T03:46:00.940Z,1.70
2022-10-09T03:48:27.857Z,1.88
2022-10-09T03:50:54.524Z,1.85
2022-10-09T03:53:23.811Z,1.52
2022-10-09T03:55:50.504Z,1.80
2022-10-09T03:58:17.239Z,1.33
2022-10-09T04:00:45.537Z,1.52
2022-10-09T04:03:12.546Z,1.48
2022-10-09T04:05:39.238Z,1.55
2022-10-09T04:08:06.019Z,2.08
2022-10-09T04:10:32.838Z,2.05
2022-10-09T04:12:59.583Z,1.80
2022-10-09T04:15:26.296Z,1.85
2022-10-09T04:17:53.200Z,2.35
2022-10-09T04:20:20.924Z,1.58
2022-10-09T04:22:48.045Z,1.70
2022-10-09T04:25:15.100Z,1.65
2022-10-09T04:27:41.971Z,1.42
2022-10-09T04:30:09.643Z,1.73
2022-10-09T04:32:36.485Z,2.05
2022-10-09T04:35:03.412Z,1.50
2022-10-09T04:37:30.172Z,1.52
2022-10-09T04:39:56.877Z,1.55
2022-10-09T04:42:23.666Z,1.45
2022-10-09T04:44:50.354Z,2.30
2022-10-09T04:47:17.609Z,1.70
2022-10-09T04:49:44.270Z,2.33
2022-10-09T04:52:11.173Z,1.98
2022-10-09T04:54:37.852Z,1.92
2022-10-09T04:57:04.543Z,1.52
2022-10-09T04:59:31.247Z,1.70
2022-10-09T05:01:58.052Z,1.77
2022-10-09T05:04:24.825Z,2.15
2022-10-09T05:06:51.630Z,1.65
2022-10-09T05:09:18.449Z,2.20
2022-10-09T05:11:45.183Z,1.60
2022-10-09T05:14:12.143Z,1.70
2022-10-09T05:17:00.946Z,1.95
2022-10-09T05:19:25.855Z,1.48
2022-10-09T05:21:52.631Z,1.77
2022-10-09T05:24:19.529Z,2.28
2022-10-09T05:26:46.224Z,1.50
2022-10-09T05:29:13.046Z,1.70
2022-10-09T05:31:39.794Z,1.58
2022-10-09T05:34:06.611Z,2.15
2022-10-09T05:36:33.313Z,2.13
2022-10-09T05:39:01.292Z,1.75
2022-10-09T05:41:29.669Z,1.55
2022-10-09T05:44:01.233Z,1.60
2022-10-09T05:46:29.811Z,1.42
2022-10-09T05:48:57.699Z,1.55
2022-10-09T05:51:29.539Z,2.03
2022-10-09T05:53:56.886Z,1.73
2022-10-09T05:56:28.957Z,1.52
2022-10-09T05:59:03.175Z,1.50
2022-10-09T06:01:44.724Z,1.60
2022-10-09T06:04:17.356Z,1.42
2022-10-09T06:06:44.890Z,1.25
2022-10-09T06:09:11.818Z,1.45
2022-10-09T06:11:39.706Z,1.92
2022-10-09T06:14:08.664Z,1.88
2022-10-09T06:16:38.056Z,1.80
2022-10-09T06:19:06.499Z,1.75
2022-10-09T06:21:34.470Z,1.73
2022-10-09T06:24:03.202Z,1.67
2022-10-09T06:26:30.796Z,1.23
2022-10-09T06:28:58.861Z,1.15
2022-10-09T06:31:28.361Z,1.42
2022-10-09T06:33:55.329Z,2.30
2022-10-09T06:36:26.796Z,1.80
2022-10-09T06:38:54.047Z,2.00
2022-10-09T06:41:25.525Z,1.60
2022-10-09T06:43:59.958Z,2.08
2022-10-09T06:46:29.445Z,1.35
2022-10-09T06:48:56.328Z,1.67
2022-10-09T06:51:24.026Z,1.90
2022-10-09T06:53:53.331Z,1.77
2022-10-09T06:56:22.067Z,1.55
2022-10-09T06:58:49.114Z,1.50
2022-10-09T07:01:24.744Z,1.38
2022-10-09T07:03:57.334Z,1.00
2022-10-09T07:06:26.672Z,1.15
2022-10-09T07:08:56.982Z,1.20
2022-10-09T07:11:26.212Z,1.20
2022-10-09T07:14:01.194Z,1.20
2022-10-09T07:16:41.475Z,1.20
2022-10-09T07:19:11.244Z,1.20
2022-10-09T07:21:40.155Z,1.45
2022-10-09T07:24:07.380Z,1.45
2022-10-09T07:26:36.094Z,1.10
2022-10-09T07:29:04.637Z,1.63
2022-10-09T07:31:31.441Z,1.20
2022-10-09T07:33:59.466Z,1.08
2022-10-09T07:36:26.392Z,1.67
2022-10-09T07:38:57.828Z,1.40
2022-10-09T07:41:26.743Z,1.73
2022-10-09T07:43:53.840Z,1.30
2022-10-09T07:46:22.813Z,1.60
2022-10-09T07:48:51.054Z,1.77
2022-10-09T07:51:24.368Z,1.58
2022-10-09T07:53:52.489Z,1.40
2022-10-09T07:56:41.772Z,1.40
2022-10-09T07:59:12.730Z,1.50
2022-10-09T08:01:39.834Z,1.75
2022-10-09T08:04:06.929Z,1.25
2022-10-09T08:06:34.228Z,1.48
2022-10-09T08:09:02.199Z,1.70
2022-10-09T08:11:30.119Z,1.88
2022-10-09T08:13:57.024Z,1.70
2022-10-09T08:16:24.873Z,1.20
2022-10-09T08:18:58.343Z,2.28
2022-10-09T08:21:26.135Z,1.75
2022-10-09T08:23:55.102Z,1.50
2022-10-09T08:26:23.001Z,1.10
2022-10-09T08:28:55.119Z,1.35
2022-10-09T08:31:22.858Z,1.25
2022-10-09T08:33:53.978Z,1.23
2022-10-09T08:36:21.444Z,1.65
2022-10-09T08:38:48.796Z,0.95
2022-10-09T08:41:34.621Z,1.40
2022-10-09T08:44:10.570Z,1.05
2022-10-09T08:46:59.365Z,1.52
2022-10-09T08:49:51.012Z,1.35
2022-10-09T08:52:44.809Z,1.25
2022-10-09T08:55:19.418Z,1.70
2022-10-09T08:57:49.326Z,1.00
2022-10-09T09:00:19.411Z,2.05
2022-10-09T09:03:07.191Z,1.40
2022-10-09T09:05:41.754Z,1.00
2022-10-09T09:08:16.941Z,1.00
2022-10-09T09:10:57.506Z,1.00
2022-10-09T09:13:55.314Z,1.50
2022-10-09T09:16:29.646Z,1.23
2022-10-09T09:19:17.926Z,1.42
2022-10-09T09:21:51.810Z,1.27
2022-10-09T09:24:28.197Z,1.20
2022-10-09T09:26:56.634Z,1.13
2022-10-09T09:29:24.134Z,1.13
2022-10-09T09:31:55.935Z,1.50
2022-10-09T09:34:27.241Z,1.40
2022-10-09T09:37:00.587Z,1.70
2022-10-09T09:40:34.492Z,1.35
2022-10-09T09:42:18.869Z,1.25
2022-10-09T09:44:55.058Z,1.48
2022-10-09T09:47:27.099Z,1.25
2022-10-09T09:49:57.405Z,1.63
2022-10-09T09:52:25.311Z,2.85
2022-10-09T09:54:52.109Z,1.90
2022-10-09T09:57:29.815Z,2.17
2022-10-09T10:00:20.227Z,1.50
2022-10-09T10:02:47.724Z,2.05
2022-10-09T10:05:36.566Z,2.17
2022-10-09T10:08:18.247Z,1.63
2022-10-09T10:10:48.717Z,2.03
2022-10-09T10:13:18.318Z,1.50
2022-10-09T10:15:51.907Z,2.92
2022-10-09T10:18:19.574Z,2.28
2022-10-09T10:20:48.968Z,1.80
2022-10-09T10:23:33.361Z,1.88
2022-10-09T10:26:03.746Z,2.13
2022-10-09T10:28:40.151Z,1.55
2022-10-09T10:31:13.459Z,1.73
2022-10-09T10:33:42.721Z,2.20
2022-10-09T10:36:10.376Z,2.95
2022-10-09T10:38:44.252Z,1.67
2022-10-09T10:41:28.117Z,2.13
2022-10-09T10:43:59.451Z,2.00
2022-10-09T10:46:34.853Z,2.13
2022-10-09T10:49:01.712Z,1.70
2022-10-09T10:51:55.825Z,1.73
2022-10-09T10:54:35.499Z,2.25
2022-10-09T10:57:12.909Z,1.92
2022-10-09T10:59:51.193Z,2.17
2022-10-09T11:02:21.039Z,2.50
2022-10-09T11:05:12.761Z,1.60
2022-10-09T11:07:59.906Z,1.98
2022-10-09T11:11:04.502Z,2.22
2022-10-09T11:13:43.023Z,1.98
2022-10-09T11:16:30.098Z,2.38
2022-10-09T11:19:26.185Z,2.05
2022-10-09T11:22:17.617Z,2.22
2022-10-09T11:24:55.426Z,2.58
2022-10-09T11:27:27.237Z,2.30
2022-10-09T11:30:02.797Z,2.22
2022-10-09T11:32:36.822Z,2.60
2022-10-09T11:35:12.303Z,2.40
2022-10-09T11:37:41.161Z,2.67
2022-10-09T11:40:20.452Z,2.72
2022-10-09T11:42:59.343Z,2.53
2022-10-09T11:45:33.111Z,2.70
2022-10-09T11:48:18.163Z,1.90
2022-10-09T11:50:53.947Z,3.45
2022-10-09T11:53:25.454Z,3.30
2022-10-09T11:56:22.792Z,2.30
2022-10-09T11:59:00.483Z,2.90
2022-10-09T12:01:35.995Z,3.08
2022-10-09T12:04:32.280Z,3.30
2022-10-09T12:07:09.582Z,3.05
2022-10-09T12:09:40.786Z,3.13
2022-10-09T12:12:27.936Z,2.92
2022-10-09T12:14:55.142Z,2.55
2022-10-09T12:17:21.903Z,2.58
2022-10-09T12:20:07.938Z,2.35
2022-10-09T12:22:41.421Z,2.63
2022-10-09T12:25:26.394Z,2.58
2022-10-09T12:27:55.008Z,2.40
2022-10-09T12:30:25.075Z,2.47
2022-10-09T12:33:26.006Z,2.47
2022-10-09T12:36:15.414Z,2.53
2022-10-09T12:38:42.727Z,3.42
2022-10-09T12:41:22.137Z,3.42
2022-10-09T12:43:51.818Z,2.05
2022-10-09T12:46:38.485Z,2.47
2022-10-09T12:49:14.620Z,2.42
2022-10-09T12:51:41.380Z,2.75
2022-10-09T12:54:10.079Z,2.40
2022-10-09T12:56:38.583Z,2.50
2022-10-09T12:59:06.538Z,2.08
2022-10-09T13:01:34.597Z,2.42
2022-10-09T13:04:04.319Z,2.42
2022-10-09T13:06:42.243Z,1.80
2022-10-09T13:09:20.582Z,2.92
2022-10-09T13:12:01.823Z,2.50
2022-10-09T13:14:45.028Z,2.80
2022-10-09T13:17:28.793Z,2.47
2022-10-09T13:19:58.545Z,2.53
2022-10-09T13:22:29.102Z,2.92
2022-10-09T13:24:58.803Z,2.33
2022-10-09T13:27:34.970Z,2.22
2022-10-09T13:30:01.848Z,2.95
2022-10-09T13:32:28.615Z,1.92
2022-10-09T13:34:55.623Z,1.90
2022-10-09T13:37:24.725Z,3.13
2022-10-09T13:39:56.544Z,2.90
2022-10-09T13:42:26.950Z,3.00
2022-10-09T13:44:53.855Z,2.45
2022-10-09T13:47:24.444Z,3.00
2022-10-09T13:52:18.353Z,2.60
2022-10-09T13:54:45.210Z,3.25
2022-10-09T13:57:12.074Z,2.67
2022-10-09T13:59:38.850Z,2.72
2022-10-09T14:02:05.550Z,3.20
2022-10-09T14:04:32.343Z,3.53
2022-10-09T14:06:59.064Z,2.70
2022-10-09T14:09:25.894Z,4.10
2022-10-09T14:11:52.662Z,2.67
2022-10-09T14:14:19.596Z,2.42
2022-10-09T14:16:46.388Z,2.75
2022-10-09T14:19:13.199Z,1.92
2022-10-09T14:21:40.320Z,2.35
2022-10-09T14:24:07.271Z,2.80
2022-10-09T14:26:35.439Z,2.47
2022-10-09T14:29:03.337Z,2.97
2022-10-09T14:31:30.461Z,2.55
2022-10-09T14:33:58.944Z,2.00
2022-10-09T14:36:25.983Z,2.53
2022-10-09T14:38:53.167Z,5.55
2022-10-09T14:41:20.298Z,2.17
2022-10-09T14:43:48.719Z,2.55
2022-10-09T14:46:17.633Z,2.53
2022-10-09T14:48:45.528Z,2.63
2022-10-09T14:51:14.916Z,3.67
2022-10-09T14:53:41.743Z,3.05
2022-10-09T14:56:11.779Z,2.40
2022-10-09T14:58:39.734Z,2.47
2022-10-09T15:01:07.193Z,2.63
2022-10-09T15:03:35.868Z,3.50
2022-10-09T15:06:05.235Z,6.03
2022-10-09T15:08:34.177Z,3.90
2022-10-09T15:11:01.375Z,2.63
2022-10-09T15:13:28.792Z,2.60
2022-10-09T15:16:03.677Z,2.53
2022-10-09T15:18:30.617Z,2.78
2022-10-09T15:21:00.151Z,2.90
2022-10-09T15:23:29.191Z,2.30
2022-10-09T15:25:57.609Z,2.22
2022-10-09T15:28:25.150Z,2.33
2022-10-09T15:30:55.097Z,2.30
2022-10-09T15:33:22.476Z,2.05
2022-10-09T15:35:50.544Z,3.15
2022-10-09T15:38:18.886Z,2.47
2022-10-09T15:40:48.308Z,2.83
2022-10-09T15:43:17.851Z,2.10
2022-10-09T15:45:44.922Z,1.95
2022-10-09T15:48:19.797Z,1.80
2022-10-09T15:50:50.444Z,2.08
2022-10-09T15:53:18.849Z,2.47
2022-10-09T15:55:47.608Z,1.98
2022-10-09T15:58:15.026Z,2.35
2022-10-09T16:00:47.475Z,13.00
2022-10-09T16:03:15.155Z,18.33
2022-10-09T16:05:44.371Z,6.05
2022-10-09T16:08:12.438Z,4.40
2022-10-09T16:10:49.039Z,3.08
2022-10-09T16:13:16.512Z,2.35
2022-10-09T16:15:44.645Z,2.53
2022-10-09T16:18:11.816Z,2.45
2022-10-09T16:20:39.583Z,3.13
2022-10-09T16:23:07.900Z,3.00
2022-10-09T16:25:35.724Z,2.33
2022-10-09T16:28:03.409Z,2.83
2022-10-09T16:30:30.638Z,3.92
2022-10-09T16:32:57.373Z,2.72
2022-10-09T16:35:24.251Z,3.45
2022-10-09T16:37:54.571Z,2.67
2022-10-09T16:40:32.597Z,2.97
2022-10-09T16:43:08.400Z,3.05
2022-10-09T16:45:35.401Z,2.80
2022-10-09T16:48:02.330Z,3.30
2022-10-09T16:50:29.136Z,2.78
2022-10-09T16:52:55.981Z,2.90
2022-10-09T16:55:22.752Z,2.95
2022-10-09T16:57:49.809Z,2.70
2022-10-09T17:00:19.312Z,2.75
2022-10-09T17:02:46.321Z,2.45
2022-10-09T17:05:13.484Z,2.28
2022-10-09T17:07:40.312Z,2.30
2022-10-09T17:10:07.454Z,2.10
2022-10-09T17:12:34.369Z,2.20
2022-10-09T17:15:01.217Z,2.40
2022-10-09T17:17:28.214Z,2.25
2022-10-09T17:19:55.400Z,2.33
2022-10-09T17:22:22.241Z,2.20
2022-10-09T17:24:49.331Z,3.10
2022-10-09T17:27:16.175Z,2.35
2022-10-09T17:29:43.131Z,2.22
2022-10-09T17:32:09.895Z,2.30
2022-10-09T17:34:36.658Z,2.00
2022-10-09T17:37:03.599Z,2.70
2022-10-09T17:39:30.448Z,2.22
2022-10-09T17:41:57.571Z,3.47
2022-10-09T17:47:12.617Z,2.90
2022-10-09T17:49:39.280Z,2.50
2022-10-09T17:52:06.080Z,3.38
2022-10-09T17:54:32.869Z,3.13
2022-10-09T17:57:01.305Z,3.35
2022-10-09T17:59:28.127Z,3.13
2022-10-09T18:01:54.907Z,2.97
2022-10-09T18:04:21.746Z,2.30
2022-10-09T18:06:48.686Z,3.38
2022-10-09T18:09:15.408Z,2.83
2022-10-09T18:11:42.810Z,3.30
2022-10-09T18:14:09.903Z,3.20
2022-10-09T18:16:38.113Z,3.08
2022-10-09T18:19:06.984Z,3.15
2022-10-09T18:21:34.517Z,2.92
2022-10-09T18:24:01.230Z,3.15
2022-10-09T18:26:28.049Z,2.65
2022-10-09T18:28:54.783Z,2.90
2022-10-09T18:31:23.677Z,2.97
2022-10-09T18:33:50.953Z,3.50
2022-10-09T18:36:20.972Z,2.90
2022-10-09T18:38:53.536Z,2.58
2022-10-09T18:41:22.099Z,2.83
2022-10-09T18:43:49.234Z,3.10
2022-10-09T18:46:18.217Z,3.00
2022-10-09T18:48:45.497Z,2.67
2022-10-09T18:51:16.577Z,2.90
2022-10-09T18:56:11.252Z,1.90
2022-10-09T18:58:39.342Z,2.88
2022-10-09T19:01:07.602Z,2.60
2022-10-09T19:03:36.691Z,1.73
2022-10-09T19:06:04.452Z,1.90
2022-10-09T19:08:31.154Z,2.25
2022-10-09T19:10:57.958Z,2.08
2022-10-09T19:13:25.176Z,1.95
2022-10-09T19:15:58.702Z,1.83
2022-10-09T19:18:26.916Z,1.70
2022-10-09T19:20:53.726Z,1.85
2022-10-09T19:23:20.541Z,1.77
2022-10-09T19:25:56.510Z,1.40
2022-10-09T19:28:25.324Z,1.80
2022-10-09T19:30:52.295Z,2.15
2022-10-09T19:33:19.167Z,1.67
2022-10-09T19:35:51.447Z,1.67
2022-10-09T19:38:19.452Z,1.20
2022-10-09T19:40:46.498Z,1.15
2022-10-09T19:43:13.983Z,1.08
2022-10-09T19:45:41.341Z,1.40
2022-10-09T19:48:08.619Z,1.73
2022-10-09T19:50:41.492Z,1.42
2022-10-09T19:53:08.320Z,1.33
2022-10-09T19:55:35.662Z,1.63
2022-10-09T19:58:02.490Z,0.60
2022-10-09T20:00:29.932Z,0.57
2022-10-09T20:02:56.661Z,0.40
2022-10-09T20:05:23.404Z,0.30
2022-10-09T20:07:50.365Z,0.60
2022-10-09T20:10:17.362Z,0.20
2022-10-09T20:12:44.130Z,0.25
2022-10-09T20:15:11.160Z,0.40
2022-10-09T20:17:37.887Z,0.38
2022-10-09T20:20:05.823Z,0.47
2022-10-09T20:22:32.563Z,1.15
2022-10-09T20:24:59.381Z,0.85
2022-10-09T20:27:26.099Z,1.40
2022-10-09T20:29:53.732Z,1.50
2022-10-09T20:32:20.625Z,1.42
2022-10-09T20:34:47.434Z,1.40
2022-10-09T20:37:14.172Z,1.58
2022-10-09T20:39:40.888Z,1.27
2022-10-09T20:42:07.814Z,1.30
2022-10-09T20:44:34.589Z,1.30
2022-10-09T20:47:01.926Z,1.08
2022-10-09T20:49:28.690Z,1.30
2022-10-09T20:51:56.814Z,1.15
2022-10-09T20:54:23.754Z,1.40
2022-10-09T20:56:50.854Z,1.33
2022-10-09T20:59:18.229Z,1.85
2022-10-09T21:01:45.524Z,1.70
2022-10-09T21:04:12.508Z,1.17
2022-10-09T21:06:39.519Z,1.70
2022-10-09T21:09:06.627Z,1.77
2022-10-09T21:11:34.804Z,1.58
2022-10-09T21:14:02.538Z,1.80
2022-10-09T21:16:29.651Z,1.05
2022-10-09T21:18:59.060Z,1.42
2022-10-09T21:21:27.347Z,1.38
2022-10-09T21:23:56.043Z,1.52
2022-10-09T21:26:23.550Z,1.33
2022-10-09T21:28:53.334Z,1.73
2022-10-09T21:31:26.271Z,1.15
2022-10-09T21:33:53.044Z,0.70
2022-10-09T21:36:34.865Z,1.35
2022-10-09T21:39:02.001Z,1.48
2022-10-09T21:41:28.720Z,1.20
2022-10-09T21:43:55.526Z,1.55
2022-10-09T21:46:22.814Z,0.95
2022-10-09T21:48:49.663Z,1.50
2022-10-09T21:51:16.388Z,0.93
2022-10-09T21:53:43.285Z,1.10
2022-10-09T21:56:10.002Z,1.15
2022-10-09T21:58:38.144Z,1.40
2022-10-09T22:01:05.599Z,1.00
2022-10-09T22:03:34.942Z,1.10
2022-10-09T22:06:05.956Z,1.33
2022-10-09T22:10:59.328Z,1.27
2022-10-09T22:13:26.208Z,0.85
2022-10-09T22:15:52.888Z,1.10
2022-10-09T22:18:19.790Z,1.25
2022-10-09T22:21:13.186Z,1.42
2022-10-09T22:23:40.262Z,1.17
2022-10-09T22:26:10.283Z,1.17
2022-10-09T22:28:37.273Z,1.27
2022-10-09T22:31:24.618Z,0.60
2022-10-09T22:33:53.280Z,1.20
2022-10-09T22:36:22.007Z,1.30
2022-10-09T22:38:48.810Z,1.20
2022-10-09T22:41:18.040Z,1.17
2022-10-09T22:43:46.725Z,0.70
2022-10-09T22:46:26.175Z,1.17
2022-10-09T22:48:53.406Z,1.08
2022-10-09T22:51:21.970Z,0.70
2022-10-09T22:53:48.776Z,1.08
2022-10-09T22:56:24.176Z,1.73
2022-10-09T22:58:53.125Z,1.10
2022-10-09T23:01:31.392Z,1.00
2022-10-09T23:03:59.230Z,0.93
2022-10-09T23:06:25.980Z,0.98
2022-10-09T23:08:52.819Z,1.17
2022-10-09T23:11:20.721Z,0.75
2022-10-09T23:13:48.240Z,0.88
2022-10-09T23:16:15.579Z,1.38
2022-10-09T23:18:43.112Z,0.98
2022-10-09T23:21:13.525Z,1.55
2022-10-09T23:23:40.733Z,1.38
2022-10-09T23:26:08.993Z,1.75
2022-10-09T23:28:36.291Z,0.93
2022-10-09T23:31:08.499Z,1.75
2022-10-09T23:33:35.830Z,1.50
2022-10-09T23:36:03.291Z,1.40
2022-10-09T23:38:30.486Z,1.52
2022-10-09T23:40:58.355Z,1.65
2022-10-09T23:43:25.885Z,1.50
2022-10-09T23:45:55.141Z,1.80
2022-10-09T23:48:22.262Z,2.47
2022-10-09T23:50:49.799Z,1.30
2022-10-09T23:53:16.693Z,1.50
2022-10-09T23:55:44.038Z,1.35
2022-10-09T23:58:11.725Z,1.83
